createdAt,value
2022-12-06T00:01:06.426Z,10.97
2022-12-06T00:04:11.933Z,11.38
2022-12-06T00:07:14.336Z,12.18
2022-12-06T00:10:20.294Z,10.98
2022-12-06T00:13:22.439Z,10.77
2022-12-06T00:16:26.257Z,11.13
2022-12-06T00:19:28.809Z,11.12
2022-12-06T00:22:31.281Z,10.57
2022-12-06T00:25:35.787Z,11.43
2022-12-06T00:28:39.190Z,10.75
2022-12-06T00:31:41.529Z,10.80
2022-12-06T00:34:43.968Z,10.57
2022-12-06T00:37:46.145Z,11.80
2022-12-06T00:40:48.663Z,12.15
2022-12-06T00:43:52.282Z,11.38
2022-12-06T00:46:54.723Z,13.03
2022-12-06T00:49:57.023Z,11.75
2022-12-06T00:52:59.771Z,12.10
2022-12-06T00:56:02.017Z,12.25
2022-12-06T00:59:04.768Z,10.50
2022-12-06T01:02:07.397Z,10.70
2022-12-06T01:05:09.818Z,10.50
2022-12-06T01:08:12.562Z,10.65
2022-12-06T01:11:16.738Z,10.40
2022-12-06T01:14:18.956Z,9.93
2022-12-06T01:17:21.362Z,9.53
2022-12-06T01:20:23.601Z,8.95
2022-12-06T01:23:26.119Z,9.90
2022-12-06T01:26:31.037Z,9.45
2022-12-06T01:29:33.662Z,8.43
2022-12-06T01:32:35.958Z,8.37
2022-12-06T01:35:42.397Z,8.90
2022-12-06T01:38:44.865Z,8.50
2022-12-06T01:41:47.525Z,8.30
2022-12-06T01:44:52.866Z,8.15
2022-12-06T01:47:55.802Z,8.07
2022-12-06T01:50:59.437Z,8.50
2022-12-06T01:54:05.703Z,7.47
2022-12-06T01:57:11.461Z,8.25
2022-12-06T02:00:14.685Z,7.35
2022-12-06T02:03:21.904Z,6.93
2022-12-06T02:06:24.401Z,7.28
2022-12-06T02:09:28.449Z,7.05
2022-12-06T02:12:30.719Z,6.60
2022-12-06T02:15:43.371Z,6.57
2022-12-06T02:19:21.366Z,6.57
2022-12-06T02:22:58.349Z,6.65
2022-12-06T02:26:25.559Z,6.65
2022-12-06T02:29:47.202Z,6.03
2022-12-06T02:33:10.846Z,6.47
2022-12-06T02:36:20.991Z,7.87
2022-12-06T02:39:44.989Z,7.90
2022-12-06T02:42:58.556Z,7.22
2022-12-06T02:46:04.600Z,7.80
2022-12-06T02:49:10.630Z,7.68
2022-12-06T02:52:14.258Z,7.23
2022-12-06T02:55:18.227Z,7.20
2022-12-06T02:58:20.527Z,7.57
2022-12-06T03:01:30.890Z,6.87
2022-12-06T03:04:56.916Z,6.90
2022-12-06T03:08:06.102Z,7.07
2022-12-06T03:11:09.074Z,6.62
2022-12-06T03:14:16.093Z,7.03
2022-12-06T03:17:29.265Z,6.95
2022-12-06T03:20:42.893Z,7.10
2022-12-06T03:23:50.539Z,7.23
2022-12-06T03:26:56.830Z,7.90
2022-12-06T03:30:03.990Z,6.05
2022-12-06T03:33:06.681Z,7.93
2022-12-06T03:36:12.837Z,7.25
2022-12-06T03:39:24.075Z,6.80
2022-12-06T03:42:26.631Z,6.78
2022-12-06T03:45:39.164Z,6.93
2022-12-06T03:48:50.126Z,6.93
2022-12-06T03:51:53.080Z,7.95
2022-12-06T03:54:55.435Z,7.70
2022-12-06T03:57:58.140Z,6.72
2022-12-06T04:01:04.784Z,8.38
2022-12-06T04:04:07.545Z,7.22
2022-12-06T04:07:11.448Z,8.48
2022-12-06T04:10:14.062Z,7.13
2022-12-06T04:13:19.699Z,7.22
2022-12-06T04:16:40.721Z,6.32
2022-12-06T04:19:45.111Z,6.95
2022-12-06T04:23:04.447Z,6.93
2022-12-06T04:26:09.822Z,7.37
2022-12-06T04:29:30.895Z,7.10
2022-12-06T04:32:51.545Z,7.87
2022-12-06T04:36:15.836Z,8.05
2022-12-06T04:39:21.032Z,7.78
2022-12-06T04:42:42.228Z,8.30
2022-12-06T04:45:44.475Z,7.75
2022-12-06T04:48:46.989Z,7.97
2022-12-06T04:51:49.324Z,7.62
2022-12-06T04:54:51.956Z,7.20
2022-12-06T04:57:54.943Z,8.03
2022-12-06T05:00:57.465Z,7.47
2022-12-06T05:03:59.855Z,7.95
2022-12-06T05:07:02.428Z,6.97
2022-12-06T05:10:05.331Z,8.27
2022-12-06T05:13:10.379Z,7.13
2022-12-06T05:16:13.217Z,8.40
2022-12-06T05:19:15.832Z,8.55
2022-12-06T05:22:20.706Z,8.80
2022-12-06T05:25:23.254Z,8.20
2022-12-06T05:28:25.514Z,8.43
2022-12-06T05:31:28.185Z,8.43
2022-12-06T05:34:30.487Z,8.60
2022-12-06T05:37:33.073Z,7.60
2022-12-06T05:40:35.437Z,8.00
2022-12-06T05:43:37.972Z,8.17
2022-12-06T05:46:40.229Z,7.57
2022-12-06T05:49:42.782Z,8.30
2022-12-06T05:52:45.137Z,8.35
2022-12-06T05:55:47.875Z,7.47
2022-12-06T05:58:50.073Z,7.57
2022-12-06T06:01:52.772Z,8.23
2022-12-06T06:04:55.358Z,8.82
2022-12-06T06:07:57.739Z,7.43
2022-12-06T06:11:00.708Z,6.97
2022-12-06T06:14:02.949Z,7.97
2022-12-06T06:17:05.584Z,8.02
2022-12-06T06:20:09.128Z,8.63
2022-12-06T06:23:11.713Z,7.60
2022-12-06T06:26:14.087Z,8.90
2022-12-06T06:29:16.715Z,7.80
2022-12-06T06:32:19.712Z,7.90
2022-12-06T06:35:22.227Z,7.87
2022-12-06T06:38:24.776Z,7.90
2022-12-06T06:41:27.333Z,8.27
2022-12-06T06:44:29.756Z,7.77
2022-12-06T06:47:32.371Z,7.82
2022-12-06T06:50:34.656Z,7.70
2022-12-06T06:53:37.728Z,8.25
2022-12-06T06:56:39.945Z,7.57
2022-12-06T06:59:43.128Z,7.33
2022-12-06T07:02:45.485Z,7.45
2022-12-06T07:05:57.042Z,7.37
2022-12-06T07:08:59.370Z,6.50
2022-12-06T07:12:03.070Z,7.28
2022-12-06T07:15:06.709Z,6.37
2022-12-06T07:18:09.428Z,6.37
2022-12-06T07:21:14.368Z,5.87
2022-12-06T07:24:16.881Z,5.97
2022-12-06T07:27:19.225Z,5.32
2022-12-06T07:30:27.153Z,6.70
2022-12-06T07:33:29.886Z,5.87
2022-12-06T07:36:33.329Z,5.55
2022-12-06T07:39:35.574Z,5.40
2022-12-06T07:42:56.715Z,5.22
2022-12-06T07:45:59.029Z,4.90
2022-12-06T07:49:01.705Z,4.68
2022-12-06T07:52:04.010Z,4.85
2022-12-06T07:55:07.368Z,5.80
2022-12-06T07:58:09.762Z,4.80
2022-12-06T08:01:12.434Z,5.00
2022-12-06T08:04:15.109Z,5.37
2022-12-06T08:07:18.520Z,5.57
2022-12-06T08:10:21.064Z,5.05
2022-12-06T08:13:23.421Z,5.20
2022-12-06T08:16:26.030Z,6.03
2022-12-06T08:19:28.324Z,5.37
2022-12-06T08:22:33.130Z,5.85
2022-12-06T08:25:35.386Z,6.30
2022-12-06T08:28:39.190Z,6.25
2022-12-06T08:31:42.679Z,6.23
2022-12-06T08:34:45.333Z,6.93
2022-12-06T08:37:47.839Z,4.82
2022-12-06T08:40:53.198Z,5.12
2022-12-06T08:43:56.541Z,5.10
2022-12-06T08:47:01.174Z,4.43
2022-12-06T08:50:05.478Z,4.10
2022-12-06T08:53:08.034Z,4.70
2022-12-06T08:56:10.451Z,4.05
2022-12-06T08:59:13.238Z,3.10
2022-12-06T09:02:15.644Z,3.60
2022-12-06T09:05:18.183Z,3.70
2022-12-06T09:08:20.515Z,3.05
2022-12-06T09:11:23.173Z,3.30
2022-12-06T09:14:25.656Z,2.85
2022-12-06T09:17:28.257Z,2.53
2022-12-06T09:20:30.792Z,7.65
2022-12-06T09:23:34.890Z,2.40
2022-12-06T09:26:37.257Z,1.92
2022-12-06T09:29:40.858Z,2.10
2022-12-06T09:32:43.423Z,1.20
2022-12-06T09:35:46.091Z,1.87
2022-12-06T09:38:53.259Z,1.77
2022-12-06T09:42:10.915Z,1.70
2022-12-06T09:45:25.324Z,1.73
2022-12-06T09:48:51.463Z,2.63
2022-12-06T09:52:08.963Z,2.00
2022-12-06T09:55:17.553Z,2.62
2022-12-06T09:58:41.543Z,2.42
2022-12-06T10:02:02.396Z,6.25
2022-12-06T10:05:40.056Z,5.73
2022-12-06T10:09:00.971Z,3.50
2022-12-06T10:12:25.007Z,2.22
2022-12-06T10:15:40.307Z,1.85
2022-12-06T10:19:25.298Z,1.85
2022-12-06T10:22:36.613Z,2.00
2022-12-06T10:25:55.611Z,2.87
2022-12-06T10:29:29.417Z,1.70
2022-12-06T10:32:54.386Z,2.45
2022-12-06T10:36:03.063Z,2.05
2022-12-06T10:39:22.984Z,1.47
2022-12-06T10:42:40.596Z,1.40
2022-12-06T10:46:39.428Z,1.60
2022-12-06T10:49:55.835Z,3.40
2022-12-06T10:53:06.419Z,2.58
2022-12-06T10:56:19.446Z,1.73
2022-12-06T10:59:43.961Z,2.50
2022-12-06T11:03:08.219Z,2.10
2022-12-06T11:06:20.724Z,2.05
2022-12-06T11:09:46.129Z,1.65
2022-12-06T11:12:53.963Z,1.40
2022-12-06T11:16:05.803Z,1.30
2022-12-06T11:19:30.456Z,2.10
2022-12-06T11:22:44.915Z,2.87
2022-12-06T11:25:50.347Z,1.70
2022-12-06T11:29:04.172Z,2.25
2022-12-06T11:32:08.081Z,2.30
2022-12-06T11:35:18.505Z,1.20
2022-12-06T11:38:21.037Z,2.75
2022-12-06T11:41:30.787Z,2.00
2022-12-06T11:45:01.384Z,2.50
2022-12-06T11:48:19.219Z,1.77
2022-12-06T11:51:24.840Z,0.70
2022-12-06T11:54:36.744Z,1.23
2022-12-06T11:57:46.266Z,1.60
2022-12-06T12:01:12.042Z,1.35
2022-12-06T12:04:25.539Z,1.55
2022-12-06T12:07:28.151Z,1.00
2022-12-06T12:10:42.836Z,1.27
2022-12-06T12:13:52.212Z,2.40
2022-12-06T12:17:01.556Z,0.82
2022-12-06T12:20:18.962Z,1.30
2022-12-06T12:23:33.149Z,1.45
2022-12-06T12:26:39.356Z,1.00
2022-12-06T12:29:41.968Z,1.10
2022-12-06T12:32:45.693Z,1.67
2022-12-06T12:35:54.723Z,1.83
2022-12-06T12:39:03.035Z,1.35
2022-12-06T12:42:29.822Z,1.60
2022-12-06T12:45:32.445Z,1.83
2022-12-06T12:48:36.841Z,1.35
2022-12-06T12:51:46.438Z,1.60
2022-12-06T12:55:16.595Z,2.00
2022-12-06T12:58:18.843Z,1.62
2022-12-06T13:01:24.517Z,1.57
2022-12-06T13:04:37.655Z,1.40
2022-12-06T13:07:42.070Z,1.75
2022-12-06T13:10:48.183Z,1.70
2022-12-06T13:13:54.006Z,1.87
2022-12-06T13:17:00.351Z,1.00
2022-12-06T13:20:16.727Z,1.25
2022-12-06T13:23:23.900Z,1.55
2022-12-06T13:26:31.798Z,1.08
2022-12-06T13:29:53.686Z,1.00
2022-12-06T13:33:21.353Z,1.50
2022-12-06T13:36:25.918Z,1.42
2022-12-06T13:39:31.185Z,1.90
2022-12-06T13:42:36.430Z,1.90
2022-12-06T13:45:48.603Z,1.23
2022-12-06T13:49:24.446Z,1.20
2022-12-06T13:52:42.284Z,1.37
2022-12-06T13:55:58.936Z,1.77
2022-12-06T13:59:24.811Z,1.70
2022-12-06T14:02:45.360Z,1.37
2022-12-06T14:09:00.204Z,2.10
2022-12-06T14:12:23.535Z,1.70
2022-12-06T14:15:26.353Z,1.98
2022-12-06T14:18:29.675Z,1.48
2022-12-06T14:21:39.184Z,1.03
2022-12-06T14:24:43.652Z,1.40
2022-12-06T14:27:49.072Z,1.80
2022-12-06T14:31:04.804Z,1.15
2022-12-06T14:34:25.080Z,1.60
2022-12-06T14:37:27.895Z,1.77
2022-12-06T14:40:57.129Z,1.60
2022-12-06T14:43:59.720Z,1.77
2022-12-06T14:47:02.516Z,1.85
2022-12-06T14:50:24.492Z,1.70
2022-12-06T14:53:32.519Z,2.00
2022-12-06T14:56:36.574Z,1.92
2022-12-06T15:00:13.579Z,2.67
2022-12-06T15:03:13.790Z,2.22
2022-12-06T15:06:17.708Z,1.80
2022-12-06T15:09:22.065Z,2.17
2022-12-06T15:12:47.038Z,3.00
2022-12-06T15:16:08.091Z,2.30
2022-12-06T15:19:14.864Z,4.28
2022-12-06T15:22:25.344Z,2.70
2022-12-06T15:25:27.988Z,2.13
2022-12-06T15:28:30.517Z,3.40
2022-12-06T15:31:34.234Z,8.90
2022-12-06T15:34:36.836Z,2.53
2022-12-06T15:37:40.451Z,2.75
2022-12-06T15:40:50.786Z,2.90
2022-12-06T15:43:54.246Z,2.25
2022-12-06T15:46:56.981Z,2.40
2022-12-06T15:49:59.306Z,2.33
2022-12-06T15:53:01.847Z,2.10
2022-12-06T15:56:04.432Z,2.27
2022-12-06T15:59:07.032Z,2.92
2022-12-06T16:02:15.579Z,2.03
2022-12-06T16:05:18.431Z,1.90
2022-12-06T16:08:20.748Z,2.40
2022-12-06T16:11:25.877Z,2.17
2022-12-06T16:14:28.284Z,2.10
2022-12-06T16:17:30.876Z,2.33
2022-12-06T16:20:33.477Z,2.08
2022-12-06T16:27:17.024Z,2.10
2022-12-06T16:30:32.094Z,1.85
2022-12-06T16:33:34.470Z,2.67
2022-12-06T16:36:53.472Z,2.20
2022-12-06T16:39:55.800Z,2.05
2022-12-06T16:42:58.367Z,4.23
2022-12-06T16:46:30.927Z,1.75
2022-12-06T16:49:49.589Z,2.03
2022-12-06T16:52:52.397Z,2.30
2022-12-06T16:55:55.000Z,2.15
2022-12-06T16:58:57.937Z,2.10
2022-12-06T17:02:01.633Z,2.65
2022-12-06T17:05:06.819Z,2.42
2022-12-06T17:08:09.673Z,2.70
2022-12-06T17:11:36.468Z,2.75
2022-12-06T17:14:40.210Z,2.70
2022-12-06T17:17:42.919Z,3.30
2022-12-06T17:20:45.497Z,3.25
2022-12-06T17:23:47.735Z,3.40
2022-12-06T17:26:50.337Z,3.62
2022-12-06T17:29:52.647Z,3.80
2022-12-06T17:32:55.170Z,3.33
2022-12-06T17:35:57.413Z,3.28
2022-12-06T17:39:01.933Z,3.50
2022-12-06T17:42:22.939Z,3.42
2022-12-06T17:45:25.730Z,3.57
2022-12-06T17:48:33.491Z,3.40
2022-12-06T17:51:37.945Z,4.12
2022-12-06T17:54:40.285Z,2.80
2022-12-06T17:57:42.943Z,3.20
2022-12-06T18:00:45.232Z,3.60
2022-12-06T18:03:51.017Z,2.80
2022-12-06T18:06:53.462Z,3.10
2022-12-06T18:09:56.017Z,2.20
2022-12-06T18:13:01.496Z,2.10
2022-12-06T18:16:16.932Z,2.43
2022-12-06T18:19:20.863Z,2.60
2022-12-06T18:22:23.407Z,2.20
2022-12-06T18:25:25.609Z,2.20
2022-12-06T18:28:28.196Z,3.00
2022-12-06T18:31:32.462Z,2.97
2022-12-06T18:34:35.212Z,2.60
2022-12-06T18:37:38.234Z,2.75
2022-12-06T18:40:43.145Z,3.15
2022-12-06T18:43:45.941Z,3.40
2022-12-06T18:46:48.564Z,2.87
2022-12-06T18:49:50.831Z,3.45
2022-12-06T18:52:53.333Z,4.00
2022-12-06T18:55:55.554Z,4.00
2022-12-06T18:59:00.256Z,3.28
2022-12-06T19:02:02.641Z,4.20
2022-12-06T19:05:05.824Z,3.30
2022-12-06T19:08:08.237Z,3.58
2022-12-06T19:11:18.685Z,3.40
2022-12-06T19:14:23.068Z,3.90
2022-12-06T19:17:25.652Z,3.83
2022-12-06T19:20:27.936Z,4.12
2022-12-06T19:23:30.578Z,4.55
2022-12-06T19:26:33.975Z,4.57
2022-12-06T19:29:36.524Z,4.55
2022-12-06T19:32:38.758Z,4.40
2022-12-06T19:35:41.308Z,4.75
2022-12-06T19:38:44.599Z,4.62
2022-12-06T19:42:07.123Z,4.93
2022-12-06T19:45:09.721Z,4.30
2022-12-06T19:48:12.266Z,4.10
2022-12-06T19:51:15.171Z,4.62
2022-12-06T19:54:29.412Z,5.20
2022-12-06T19:57:31.908Z,5.03
2022-12-06T20:00:34.827Z,4.75
2022-12-06T20:03:38.229Z,4.63
2022-12-06T20:06:40.573Z,5.28
2022-12-06T20:09:43.324Z,5.00
2022-12-06T20:12:46.128Z,4.75
2022-12-06T20:15:48.765Z,5.50
2022-12-06T20:18:51.792Z,5.13
2022-12-06T20:21:55.002Z,5.10
2022-12-06T20:24:57.269Z,6.00
2022-12-06T20:28:02.421Z,6.28
2022-12-06T20:31:11.387Z,5.87
2022-12-06T20:34:15.565Z,5.80
2022-12-06T20:37:17.953Z,6.07
2022-12-06T20:40:20.638Z,5.75
2022-12-06T20:43:22.851Z,6.18
2022-12-06T20:46:27.990Z,7.10
2022-12-06T20:49:30.369Z,6.07
2022-12-06T20:52:32.933Z,5.70
2022-12-06T20:55:35.188Z,6.12
2022-12-06T20:58:38.206Z,5.87
2022-12-06T21:01:41.737Z,6.82
2022-12-06T21:04:44.452Z,6.23
2022-12-06T21:07:46.740Z,6.45
2022-12-06T21:11:21.064Z,7.32
2022-12-06T21:14:16.969Z,6.03
2022-12-06T21:17:19.664Z,6.40
2022-12-06T21:20:22.110Z,6.30
2022-12-06T21:23:25.095Z,6.25
2022-12-06T21:26:28.548Z,6.85
2022-12-06T21:29:31.422Z,6.47
2022-12-06T21:32:34.324Z,6.50
2022-12-06T21:35:37.589Z,6.40
2022-12-06T21:38:40.103Z,7.28
2022-12-06T21:41:42.752Z,7.12
2022-12-06T21:44:45.247Z,7.00
2022-12-06T21:47:47.840Z,7.65
2022-12-06T21:50:50.090Z,8.67
2022-12-06T21:53:52.955Z,7.95
2022-12-06T21:56:56.802Z,7.30
2022-12-06T21:59:59.691Z,8.48
2022-12-06T22:03:02.298Z,7.72
2022-12-06T22:06:07.361Z,8.87
2022-12-06T22:09:10.123Z,8.80
2022-12-06T22:12:12.851Z,9.98
2022-12-06T22:15:15.221Z,10.07
2022-12-06T22:18:17.784Z,11.68
2022-12-06T22:21:22.576Z,10.00
2022-12-06T22:24:25.183Z,10.57
2022-12-06T22:27:27.447Z,9.32
2022-12-06T22:30:29.981Z,9.65
2022-12-06T22:33:32.598Z,10.00
2022-12-06T22:36:35.169Z,8.37
2022-12-06T22:39:37.522Z,8.63
2022-12-06T22:42:40.133Z,9.23
2022-12-06T22:45:42.475Z,8.85
2022-12-06T22:48:45.578Z,9.27
2022-12-06T22:51:47.918Z,8.90
2022-12-06T22:54:50.421Z,9.30
2022-12-06T22:57:53.179Z,9.52
2022-12-06T23:00:55.734Z,8.90
2022-12-06T23:04:00.724Z,9.55
2022-12-06T23:07:03.569Z,7.87
2022-12-06T23:10:06.771Z,9.05
2022-12-06T23:13:09.342Z,7.40
2022-12-06T23:16:20.550Z,7.72
2022-12-06T23:19:23.141Z,7.95
2022-12-06T23:22:25.481Z,9.03
2022-12-06T23:25:28.020Z,10.95
2022-12-06T23:28:30.726Z,11.15
2022-12-06T23:31:36.446Z,10.85
2022-12-06T23:34:38.845Z,12.70
2022-12-06T23:37:41.662Z,11.73
2022-12-06T23:40:43.874Z,10.45
2022-12-06T23:43:46.501Z,11.65
2022-12-06T23:46:48.773Z,11.02
2022-12-06T23:49:51.358Z,11.93
2022-12-06T23:52:53.747Z,12.93
2022-12-06T23:56:01.761Z,13.15
2022-12-06T23:59:06.499Z,11.82
